Gregory, Arkansas
Current Conditions -  °F | °C
As of 12:08 AM on Friday 31 Oct 2014 (Local Time) from KSRC Reporting Station
Clear Clear  
Wind Chill: 46°   Ceiling: Unl
Heat Index: 46°   Visibility: 10mi
Dew Point: 46°   Wind: 0mph
Humidity: 100%   Direction: NA
Pressure: 30.04"   Gusts: NA
Location:  35.16°N, 91.34°W
Report Text: KSRC 310508Z AUTO 00000KT 10SM CLR 08/08 A3004 RMK AO2 TSNO
Loading
Personal Weather Stations






























Interactive Weather Map
Tropical Storm Tracking
New forecast layout! Learn more

10-Day Weather Forecast

Advertisements
Track Severe Weather on mobile